KSBA

Santa Barbara Municipal Airport

Santa Barbara, California, USA
METAR KSBA 210453Z 00000KT 7SM FEW010 19/17 A2991 RMK AO2 SLP128 T01940172 $
Observed Flight Rules
Aug-21 @ 04:53 UTC (9 hours ago) Visual Flight Rules
Visibility Clouds
7 miles
  • Few at 1,000' AGL
Temperatures Readings
Current 19°C / 66°F
Dewpoint 17°C / 63°F
Humidity 88%
Altimeter 29.91" Hg
Pressure 1012.8 hPa
Elevation 3
METAR KSBA 210453Z 00000KT 7SM FEW010 19/17 A2991 RMK AO2 SLP128 T01940172 $
Observed Flight Rules
Aug-21 @ 04:53 UTC
(9 hours ago)
VFR
Clouds
  • Few at 1,000' AGL
Temperature Dewpoint
19°C / 66°F 17°C / 63°F
Humidity Altimeter Pressure
88% 29.91" Hg 1012.8 hPa